sensor_id;sensor_type;location;lat;lon;timestamp;pressure;altitude;pressure_sealevel;temperature
22322;BMP180;11328;53.928;18.522;2023-06-22T00:00:15;100477.00;;;21.40
22322;BMP180;11328;53.928;18.522;2023-06-22T00:02:43;100485.00;;;21.50
22322;BMP180;11328;53.928;18.522;2023-06-22T00:05:10;100487.00;;;21.60
22322;BMP180;11328;53.928;18.522;2023-06-22T00:07:37;100490.00;;;21.70
22322;BMP180;11328;53.928;18.522;2023-06-22T00:10:04;100489.00;;;21.80
22322;BMP180;11328;53.928;18.522;2023-06-22T00:12:32;100497.00;;;21.80
22322;BMP180;11328;53.928;18.522;2023-06-22T00:14:59;100495.00;;;22.00
22322;BMP180;11328;53.928;18.522;2023-06-22T00:17:26;100488.00;;;22.00
22322;BMP180;11328;53.928;18.522;2023-06-22T00:19:53;100492.00;;;22.00
22322;BMP180;11328;53.928;18.522;2023-06-22T00:22:23;100485.00;;;21.80
22322;BMP180;11328;53.928;18.522;2023-06-22T00:24:56;100493.00;;;21.80
22322;BMP180;11328;53.928;18.522;2023-06-22T00:27:24;100498.00;;;21.70
22322;BMP180;11328;53.928;18.522;2023-06-22T00:29:51;100495.00;;;21.60
22322;BMP180;11328;53.928;18.522;2023-06-22T00:32:18;100498.00;;;21.30
22322;BMP180;11328;53.928;18.522;2023-06-22T00:34:46;100493.00;;;21.20
22322;BMP180;11328;53.928;18.522;2023-06-22T00:37:13;100489.00;;;21.20
22322;BMP180;11328;53.928;18.522;2023-06-22T00:39:40;100488.00;;;21.00
22322;BMP180;11328;53.928;18.522;2023-06-22T00:42:08;100486.00;;;20.90
22322;BMP180;11328;53.928;18.522;2023-06-22T00:44:36;100497.00;;;20.80
22322;BMP180;11328;53.928;18.522;2023-06-22T00:47:04;100492.00;;;20.70
22322;BMP180;11328;53.928;18.522;2023-06-22T00:49:31;100494.00;;;20.60
22322;BMP180;11328;53.928;18.522;2023-06-22T00:51:58;100490.00;;;20.70
22322;BMP180;11328;53.928;18.522;2023-06-22T00:54:26;100493.00;;;20.70
22322;BMP180;11328;53.928;18.522;2023-06-22T00:56:55;100497.00;;;20.80
22322;BMP180;11328;53.928;18.522;2023-06-22T00:59:26;100488.00;;;20.80
22322;BMP180;11328;53.928;18.522;2023-06-22T01:01:54;100495.00;;;20.70
22322;BMP180;11328;53.928;18.522;2023-06-22T01:04:34;100491.00;;;20.70
22322;BMP180;11328;53.928;18.522;2023-06-22T01:11:04;100495.00;;;20.50
22322;BMP180;11328;53.928;18.522;2023-06-22T01:13:54;100485.00;;;20.50
22322;BMP180;11328;53.928;18.522;2023-06-22T01:16:30;100485.00;;;20.50
22322;BMP180;11328;53.928;18.522;2023-06-22T01:19:09;100479.00;;;20.30
22322;BMP180;11328;53.928;18.522;2023-06-22T01:21:42;100487.00;;;20.30
22322;BMP180;11328;53.928;18.522;2023-06-22T01:24:25;100486.00;;;20.30
22322;BMP180;11328;53.928;18.522;2023-06-22T01:29:58;100485.00;;;20.20
22322;BMP180;11328;53.928;18.522;2023-06-22T01:32:31;100497.00;;;20.10
22322;BMP180;11328;53.928;18.522;2023-06-22T01:35:03;100502.00;;;20.10
22322;BMP180;11328;53.928;18.522;2023-06-22T01:37:33;100487.00;;;20.10
22322;BMP180;11328;53.928;18.522;2023-06-22T01:40:02;100489.00;;;20.00
22322;BMP180;11328;53.928;18.522;2023-06-22T01:42:32;100487.00;;;20.00
22322;BMP180;11328;53.928;18.522;2023-06-22T01:45:01;100497.00;;;19.90
22322;BMP180;11328;53.928;18.522;2023-06-22T01:47:29;100495.00;;;19.90
22322;BMP180;11328;53.928;18.522;2023-06-22T01:49:57;100500.00;;;19.80
22322;BMP180;11328;53.928;18.522;2023-06-22T01:52:24;100492.00;;;19.70
22322;BMP180;11328;53.928;18.522;2023-06-22T01:54:51;100494.00;;;19.70
22322;BMP180;11328;53.928;18.522;2023-06-22T01:57:19;100496.00;;;19.60
22322;BMP180;11328;53.928;18.522;2023-06-22T02:00:00;100503.00;;;19.60
22322;BMP180;11328;53.928;18.522;2023-06-22T02:02:44;100502.00;;;19.60
22322;BMP180;11328;53.928;18.522;2023-06-22T02:05:17;100494.00;;;19.40
22322;BMP180;11328;53.928;18.522;2023-06-22T02:07:53;100506.00;;;19.20
22322;BMP180;11328;53.928;18.522;2023-06-22T02:10:24;100503.00;;;19.20
22322;BMP180;11328;53.928;18.522;2023-06-22T02:12:54;100493.00;;;19.00
22322;BMP180;11328;53.928;18.522;2023-06-22T02:15:23;100497.00;;;19.00
22322;BMP180;11328;53.928;18.522;2023-06-22T02:17:51;100497.00;;;19.10
22322;BMP180;11328;53.928;18.522;2023-06-22T02:20:18;100495.00;;;19.10
22322;BMP180;11328;53.928;18.522;2023-06-22T02:22:45;100502.00;;;19.00
22322;BMP180;11328;53.928;18.522;2023-06-22T02:25:12;100500.00;;;18.90
22322;BMP180;11328;53.928;18.522;2023-06-22T02:27:40;100508.00;;;18.90
22322;BMP180;11328;53.928;18.522;2023-06-22T02:30:12;100515.00;;;19.00
22322;BMP180;11328;53.928;18.522;2023-06-22T02:32:39;100509.00;;;18.90
22322;BMP180;11328;53.928;18.522;2023-06-22T02:35:09;100518.00;;;18.90
22322;BMP180;11328;53.928;18.522;2023-06-22T02:37:37;100513.00;;;18.90
22322;BMP180;11328;53.928;18.522;2023-06-22T02:40:09;100529.00;;;18.90
22322;BMP180;11328;53.928;18.522;2023-06-22T02:42:39;100502.00;;;18.90
22322;BMP180;11328;53.928;18.522;2023-06-22T02:45:07;100533.00;;;18.90
22322;BMP180;11328;53.928;18.522;2023-06-22T02:47:34;100536.00;;;19.00
22322;BMP180;11328;53.928;18.522;2023-06-22T02:50:02;100539.00;;;19.00
22322;BMP180;11328;53.928;18.522;2023-06-22T02:52:29;100538.00;;;19.00
22322;BMP180;11328;53.928;18.522;2023-06-22T02:54:56;100533.00;;;19.10
22322;BMP180;11328;53.928;18.522;2023-06-22T02:57:23;100521.00;;;19.10
22322;BMP180;11328;53.928;18.522;2023-06-22T02:59:50;100529.00;;;19.10
22322;BMP180;11328;53.928;18.522;2023-06-22T03:02:17;100532.00;;;19.20
22322;BMP180;11328;53.928;18.522;2023-06-22T03:04:47;100530.00;;;19.30
22322;BMP180;11328;53.928;18.522;2023-06-22T03:07:16;100545.00;;;19.30
22322;BMP180;11328;53.928;18.522;2023-06-22T03:09:44;100531.00;;;19.30
22322;BMP180;11328;53.928;18.522;2023-06-22T03:12:11;100547.00;;;19.40
22322;BMP180;11328;53.928;18.522;2023-06-22T03:14:39;100545.00;;;19.50
22322;BMP180;11328;53.928;18.522;2023-06-22T03:17:06;100553.00;;;19.50
22322;BMP180;11328;53.928;18.522;2023-06-22T03:19:33;100557.00;;;19.50
22322;BMP180;11328;53.928;18.522;2023-06-22T03:22:00;100561.00;;;19.60
22322;BMP180;11328;53.928;18.522;2023-06-22T03:24:27;100563.00;;;19.60
22322;BMP180;11328;53.928;18.522;2023-06-22T03:26:57;100567.00;;;19.70
22322;BMP180;11328;53.928;18.522;2023-06-22T03:29:24;100580.00;;;19.70
22322;BMP180;11328;53.928;18.522;2023-06-22T03:31:55;100572.00;;;19.60
22322;BMP180;11328;53.928;18.522;2023-06-22T03:34:22;100569.00;;;19.60
22322;BMP180;11328;53.928;18.522;2023-06-22T03:36:49;100567.00;;;19.60
22322;BMP180;11328;53.928;18.522;2023-06-22T03:39:17;100571.00;;;19.60
22322;BMP180;11328;53.928;18.522;2023-06-22T03:41:44;100572.00;;;19.60
22322;BMP180;11328;53.928;18.522;2023-06-22T03:44:11;100572.00;;;19.50
22322;BMP180;11328;53.928;18.522;2023-06-22T03:46:42;100569.00;;;19.60
22322;BMP180;11328;53.928;18.522;2023-06-22T03:49:09;100576.00;;;19.60
22322;BMP180;11328;53.928;18.522;2023-06-22T03:51:36;100575.00;;;19.60
22322;BMP180;11328;53.928;18.522;2023-06-22T03:54:03;100577.00;;;19.70
22322;BMP180;11328;53.928;18.522;2023-06-22T03:56:30;100579.00;;;19.70
22322;BMP180;11328;53.928;18.522;2023-06-22T03:58:58;100574.00;;;19.70
22322;BMP180;11328;53.928;18.522;2023-06-22T04:01:25;100587.00;;;19.70
22322;BMP180;11328;53.928;18.522;2023-06-22T04:03:52;100603.00;;;19.70
22322;BMP180;11328;53.928;18.522;2023-06-22T04:06:19;100594.00;;;19.60
22322;BMP180;11328;53.928;18.522;2023-06-22T04:08:46;100586.00;;;19.70
22322;BMP180;11328;53.928;18.522;2023-06-22T04:11:18;100589.00;;;19.80
22322;BMP180;11328;53.928;18.522;2023-06-22T04:13:45;100612.00;;;19.90
22322;BMP180;11328;53.928;18.522;2023-06-22T04:16:12;100610.00;;;19.90
22322;BMP180;11328;53.928;18.522;2023-06-22T04:18:39;100609.00;;;19.90
22322;BMP180;11328;53.928;18.522;2023-06-22T04:21:07;100611.00;;;20.00
22322;BMP180;11328;53.928;18.522;2023-06-22T04:23:34;100613.00;;;20.00
22322;BMP180;11328;53.928;18.522;2023-06-22T04:26:01;100596.00;;;20.10
22322;BMP180;11328;53.928;18.522;2023-06-22T04:28:28;100597.00;;;20.10
22322;BMP180;11328;53.928;18.522;2023-06-22T04:30:55;100596.00;;;20.10
22322;BMP180;11328;53.928;18.522;2023-06-22T04:33:25;100602.00;;;20.10
22322;BMP180;11328;53.928;18.522;2023-06-22T04:35:52;100600.00;;;20.20
22322;BMP180;11328;53.928;18.522;2023-06-22T04:38:19;100605.00;;;20.20
22322;BMP180;11328;53.928;18.522;2023-06-22T04:40:49;100603.00;;;20.30
22322;BMP180;11328;53.928;18.522;2023-06-22T04:43:16;100607.00;;;20.30
22322;BMP180;11328;53.928;18.522;2023-06-22T04:45:43;100616.00;;;20.30
22322;BMP180;11328;53.928;18.522;2023-06-22T04:48:10;100613.00;;;20.40
22322;BMP180;11328;53.928;18.522;2023-06-22T04:50:43;100616.00;;;20.50
22322;BMP180;11328;53.928;18.522;2023-06-22T04:53:11;100614.00;;;20.60
22322;BMP180;11328;53.928;18.522;2023-06-22T04:55:40;100579.00;;;20.60
22322;BMP180;11328;53.928;18.522;2023-06-22T04:58:12;100613.00;;;20.70
22322;BMP180;11328;53.928;18.522;2023-06-22T05:00:39;100625.00;;;20.70
22322;BMP180;11328;53.928;18.522;2023-06-22T05:03:07;100625.00;;;20.70
22322;BMP180;11328;53.928;18.522;2023-06-22T05:05:45;100624.00;;;20.70
22322;BMP180;11328;53.928;18.522;2023-06-22T05:08:13;100619.00;;;20.70
22322;BMP180;11328;53.928;18.522;2023-06-22T05:10:40;100630.00;;;21.00
22322;BMP180;11328;53.928;18.522;2023-06-22T05:13:25;100628.00;;;21.10
22322;BMP180;11328;53.928;18.522;2023-06-22T05:15:53;100600.00;;;21.10
22322;BMP180;11328;53.928;18.522;2023-06-22T05:18:31;100629.00;;;21.20
22322;BMP180;11328;53.928;18.522;2023-06-22T05:21:00;100629.00;;;21.20
22322;BMP180;11328;53.928;18.522;2023-06-22T05:23:30;100634.00;;;21.50
22322;BMP180;11328;53.928;18.522;2023-06-22T05:25:57;100648.00;;;21.70
22322;BMP180;11328;53.928;18.522;2023-06-22T05:28:25;100639.00;;;21.80
22322;BMP180;11328;53.928;18.522;2023-06-22T05:30:53;100637.00;;;22.10
22322;BMP180;11328;53.928;18.522;2023-06-22T05:33:20;100651.00;;;22.40
22322;BMP180;11328;53.928;18.522;2023-06-22T05:35:47;100647.00;;;22.70
22322;BMP180;11328;53.928;18.522;2023-06-22T05:38:14;100645.00;;;23.00
22322;BMP180;11328;53.928;18.522;2023-06-22T05:40:41;100659.00;;;23.10
22322;BMP180;11328;53.928;18.522;2023-06-22T05:43:08;100657.00;;;23.00
22322;BMP180;11328;53.928;18.522;2023-06-22T05:45:35;100661.00;;;22.80
22322;BMP180;11328;53.928;18.522;2023-06-22T05:48:03;100660.00;;;22.70
22322;BMP180;11328;53.928;18.522;2023-06-22T05:50:31;100686.00;;;22.40
22322;BMP180;11328;53.928;18.522;2023-06-22T05:52:58;100670.00;;;22.40
22322;BMP180;11328;53.928;18.522;2023-06-22T05:55:25;100670.00;;;22.40
22322;BMP180;11328;53.928;18.522;2023-06-22T05:57:53;100667.00;;;22.30
22322;BMP180;11328;53.928;18.522;2023-06-22T06:00:20;100673.00;;;22.20
22322;BMP180;11328;53.928;18.522;2023-06-22T06:02:49;100662.00;;;22.20
22322;BMP180;11328;53.928;18.522;2023-06-22T06:05:16;100654.00;;;22.60
22322;BMP180;11328;53.928;18.522;2023-06-22T06:07:45;100663.00;;;23.00
22322;BMP180;11328;53.928;18.522;2023-06-22T06:10:13;100660.00;;;23.10
22322;BMP180;11328;53.928;18.522;2023-06-22T06:12:40;100668.00;;;23.50
22322;BMP180;11328;53.928;18.522;2023-06-22T06:15:08;100656.00;;;23.70
22322;BMP180;11328;53.928;18.522;2023-06-22T06:17:50;100665.00;;;23.60
22322;BMP180;11328;53.928;18.522;2023-06-22T06:20:23;100661.00;;;24.00
22322;BMP180;11328;53.928;18.522;2023-06-22T06:22:50;100665.00;;;23.90
22322;BMP180;11328;53.928;18.522;2023-06-22T06:25:18;100658.00;;;23.40
22322;BMP180;11328;53.928;18.522;2023-06-22T06:27:48;100664.00;;;23.20
22322;BMP180;11328;53.928;18.522;2023-06-22T06:30:17;100655.00;;;23.00
22322;BMP180;11328;53.928;18.522;2023-06-22T06:32:46;100651.00;;;23.20
22322;BMP180;11328;53.928;18.522;2023-06-22T06:35:14;100649.00;;;23.40
22322;BMP180;11328;53.928;18.522;2023-06-22T06:37:45;100660.00;;;23.70
22322;BMP180;11328;53.928;18.522;2023-06-22T06:40:15;100679.00;;;23.80
22322;BMP180;11328;53.928;18.522;2023-06-22T06:42:48;100689.00;;;23.70
22322;BMP180;11328;53.928;18.522;2023-06-22T06:45:22;100694.00;;;23.80
22322;BMP180;11328;53.928;18.522;2023-06-22T06:47:51;100694.00;;;24.10
22322;BMP180;11328;53.928;18.522;2023-06-22T06:50:20;100687.00;;;24.30
22322;BMP180;11328;53.928;18.522;2023-06-22T06:52:47;100696.00;;;24.60
22322;BMP180;11328;53.928;18.522;2023-06-22T06:55:14;100699.00;;;24.90
22322;BMP180;11328;53.928;18.522;2023-06-22T06:57:42;100702.00;;;25.20
22322;BMP180;11328;53.928;18.522;2023-06-22T07:00:12;100703.00;;;25.30
22322;BMP180;11328;53.928;18.522;2023-06-22T07:02:45;100701.00;;;25.60
22322;BMP180;11328;53.928;18.522;2023-06-22T07:05:12;100694.00;;;25.70
22322;BMP180;11328;53.928;18.522;2023-06-22T07:07:40;100709.00;;;25.70
22322;BMP180;11328;53.928;18.522;2023-06-22T07:10:09;100716.00;;;25.50
22322;BMP180;11328;53.928;18.522;2023-06-22T07:12:36;100718.00;;;24.90
22322;BMP180;11328;53.928;18.522;2023-06-22T07:15:07;100709.00;;;25.00
22322;BMP180;11328;53.928;18.522;2023-06-22T07:17:39;100721.00;;;25.10
22322;BMP180;11328;53.928;18.522;2023-06-22T07:20:10;100715.00;;;25.50
22322;BMP180;11328;53.928;18.522;2023-06-22T07:22:41;100656.00;;;26.00
22322;BMP180;11328;53.928;18.522;2023-06-22T07:25:09;100703.00;;;26.10
22322;BMP180;11328;53.928;18.522;2023-06-22T07:27:43;100706.00;;;26.20
22322;BMP180;11328;53.928;18.522;2023-06-22T07:30:12;100714.00;;;26.50
22322;BMP180;11328;53.928;18.522;2023-06-22T07:32:40;100710.00;;;26.90
22322;BMP180;11328;53.928;18.522;2023-06-22T07:35:08;100661.00;;;26.90
22322;BMP180;11328;53.928;18.522;2023-06-22T07:37:36;100723.00;;;26.60
22322;BMP180;11328;53.928;18.522;2023-06-22T07:40:04;100728.00;;;27.10
22322;BMP180;11328;53.928;18.522;2023-06-22T07:42:33;100717.00;;;27.20
22322;BMP180;11328;53.928;18.522;2023-06-22T07:45:02;100719.00;;;27.20
22322;BMP180;11328;53.928;18.522;2023-06-22T07:47:30;100711.00;;;27.10
22322;BMP180;11328;53.928;18.522;2023-06-22T07:49:59;100720.00;;;27.00
22322;BMP180;11328;53.928;18.522;2023-06-22T07:52:30;100723.00;;;26.80
22322;BMP180;11328;53.928;18.522;2023-06-22T07:54:57;100724.00;;;27.10
22322;BMP180;11328;53.928;18.522;2023-06-22T07:57:25;100728.00;;;27.50
22322;BMP180;11328;53.928;18.522;2023-06-22T08:00:04;100736.00;;;28.00
22322;BMP180;11328;53.928;18.522;2023-06-22T08:02:45;100729.00;;;28.30
22322;BMP180;11328;53.928;18.522;2023-06-22T08:05:14;100723.00;;;27.90
22322;BMP180;11328;53.928;18.522;2023-06-22T08:07:48;100731.00;;;27.70
22322;BMP180;11328;53.928;18.522;2023-06-22T08:10:16;100720.00;;;27.90
22322;BMP180;11328;53.928;18.522;2023-06-22T08:12:43;100725.00;;;27.80
22322;BMP180;11328;53.928;18.522;2023-06-22T08:15:10;100708.00;;;27.80
22322;BMP180;11328;53.928;18.522;2023-06-22T08:17:38;100729.00;;;27.60
22322;BMP180;11328;53.928;18.522;2023-06-22T08:20:07;100719.00;;;27.50
22322;BMP180;11328;53.928;18.522;2023-06-22T08:22:42;100721.00;;;27.40
22322;BMP180;11328;53.928;18.522;2023-06-22T08:25:10;100652.00;;;27.70
22322;BMP180;11328;53.928;18.522;2023-06-22T08:27:37;100714.00;;;27.80
22322;BMP180;11328;53.928;18.522;2023-06-22T08:30:06;100736.00;;;28.00
22322;BMP180;11328;53.928;18.522;2023-06-22T08:32:34;100751.00;;;27.70
22322;BMP180;11328;53.928;18.522;2023-06-22T08:35:02;100743.00;;;27.50
22322;BMP180;11328;53.928;18.522;2023-06-22T08:37:29;100745.00;;;27.90
22322;BMP180;11328;53.928;18.522;2023-06-22T08:40:05;100748.00;;;28.00
22322;BMP180;11328;53.928;18.522;2023-06-22T08:42:40;100753.00;;;27.80
22322;BMP180;11328;53.928;18.522;2023-06-22T08:45:09;100736.00;;;27.20
22322;BMP180;11328;53.928;18.522;2023-06-22T08:47:36;100738.00;;;27.40
22322;BMP180;11328;53.928;18.522;2023-06-22T08:50:05;100743.00;;;28.00
22322;BMP180;11328;53.928;18.522;2023-06-22T08:52:33;100737.00;;;28.20
22322;BMP180;11328;53.928;18.522;2023-06-22T08:55:01;100740.00;;;28.60
22322;BMP180;11328;53.928;18.522;2023-06-22T08:57:28;100728.00;;;28.90
22322;BMP180;11328;53.928;18.522;2023-06-22T08:59:57;100729.00;;;28.90
22322;BMP180;11328;53.928;18.522;2023-06-22T09:02:27;100726.00;;;29.00
22322;BMP180;11328;53.928;18.522;2023-06-22T09:04:58;100726.00;;;28.40
22322;BMP180;11328;53.928;18.522;2023-06-22T09:07:26;100724.00;;;28.00
22322;BMP180;11328;53.928;18.522;2023-06-22T09:09:53;100720.00;;;28.10
22322;BMP180;11328;53.928;18.522;2023-06-22T09:12:21;100720.00;;;28.40
22322;BMP180;11328;53.928;18.522;2023-06-22T09:14:53;100714.00;;;28.50
22322;BMP180;11328;53.928;18.522;2023-06-22T09:17:20;100730.00;;;28.60
22322;BMP180;11328;53.928;18.522;2023-06-22T09:19:48;100731.00;;;28.50
22322;BMP180;11328;53.928;18.522;2023-06-22T09:22:15;100723.00;;;28.90
22322;BMP180;11328;53.928;18.522;2023-06-22T09:24:42;100728.00;;;28.80
22322;BMP180;11328;53.928;18.522;2023-06-22T09:27:09;100719.00;;;29.30
22322;BMP180;11328;53.928;18.522;2023-06-22T09:29:37;100716.00;;;29.60
22322;BMP180;11328;53.928;18.522;2023-06-22T09:32:05;100727.00;;;29.70
22322;BMP180;11328;53.928;18.522;2023-06-22T09:34:32;100732.00;;;29.50
22322;BMP180;11328;53.928;18.522;2023-06-22T09:36:59;100726.00;;;29.90
22322;BMP180;11328;53.928;18.522;2023-06-22T09:39:27;100720.00;;;29.60
22322;BMP180;11328;53.928;18.522;2023-06-22T09:41:55;100727.00;;;29.80
22322;BMP180;11328;53.928;18.522;2023-06-22T09:44:22;100728.00;;;29.60
22322;BMP180;11328;53.928;18.522;2023-06-22T09:46:49;100724.00;;;29.90
22322;BMP180;11328;53.928;18.522;2023-06-22T09:49:16;100715.00;;;30.20
22322;BMP180;11328;53.928;18.522;2023-06-22T09:51:43;100720.00;;;30.30
22322;BMP180;11328;53.928;18.522;2023-06-22T09:54:10;100719.00;;;30.10
22322;BMP180;11328;53.928;18.522;2023-06-22T09:56:37;100728.00;;;30.00
22322;BMP180;11328;53.928;18.522;2023-06-22T09:59:05;100714.00;;;29.70
22322;BMP180;11328;53.928;18.522;2023-06-22T10:01:44;100705.00;;;30.20
22322;BMP180;11328;53.928;18.522;2023-06-22T10:04:12;100706.00;;;30.00
22322;BMP180;11328;53.928;18.522;2023-06-22T10:06:39;100696.00;;;29.90
22322;BMP180;11328;53.928;18.522;2023-06-22T10:09:08;100711.00;;;29.80
22322;BMP180;11328;53.928;18.522;2023-06-22T10:11:35;100710.00;;;29.40
22322;BMP180;11328;53.928;18.522;2023-06-22T10:14:04;100678.00;;;29.60
22322;BMP180;11328;53.928;18.522;2023-06-22T10:16:32;100709.00;;;30.00
22322;BMP180;11328;53.928;18.522;2023-06-22T10:19:00;100713.00;;;29.70
22322;BMP180;11328;53.928;18.522;2023-06-22T10:21:28;100718.00;;;29.50
22322;BMP180;11328;53.928;18.522;2023-06-22T10:23:55;100721.00;;;29.40
22322;BMP180;11328;53.928;18.522;2023-06-22T10:26:22;100722.00;;;29.70
22322;BMP180;11328;53.928;18.522;2023-06-22T10:28:50;100717.00;;;29.70
22322;BMP180;11328;53.928;18.522;2023-06-22T10:31:33;100705.00;;;29.50
22322;BMP180;11328;53.928;18.522;2023-06-22T10:34:00;100714.00;;;29.70
22322;BMP180;11328;53.928;18.522;2023-06-22T10:36:27;100706.00;;;29.90
22322;BMP180;11328;53.928;18.522;2023-06-22T10:38:54;100710.00;;;30.10
22322;BMP180;11328;53.928;18.522;2023-06-22T10:41:22;100700.00;;;30.20
22322;BMP180;11328;53.928;18.522;2023-06-22T10:43:49;100708.00;;;30.90
22322;BMP180;11328;53.928;18.522;2023-06-22T10:46:16;100717.00;;;31.30
22322;BMP180;11328;53.928;18.522;2023-06-22T10:48:43;100711.00;;;31.60
22322;BMP180;11328;53.928;18.522;2023-06-22T10:51:10;100704.00;;;31.70
22322;BMP180;11328;53.928;18.522;2023-06-22T10:53:38;100701.00;;;32.00
22322;BMP180;11328;53.928;18.522;2023-06-22T10:56:05;100702.00;;;31.90
22322;BMP180;11328;53.928;18.522;2023-06-22T10:58:32;100711.00;;;31.70
22322;BMP180;11328;53.928;18.522;2023-06-22T11:00:59;100710.00;;;31.30
22322;BMP180;11328;53.928;18.522;2023-06-22T11:03:26;100719.00;;;31.30
22322;BMP180;11328;53.928;18.522;2023-06-22T11:05:54;100714.00;;;31.10
22322;BMP180;11328;53.928;18.522;2023-06-22T11:08:21;100707.00;;;31.30
22322;BMP180;11328;53.928;18.522;2023-06-22T11:10:48;100703.00;;;30.60
22322;BMP180;11328;53.928;18.522;2023-06-22T11:13:16;100695.00;;;30.80
22322;BMP180;11328;53.928;18.522;2023-06-22T11:15:43;100679.00;;;30.60
22322;BMP180;11328;53.928;18.522;2023-06-22T11:18:10;100693.00;;;30.80
22322;BMP180;11328;53.928;18.522;2023-06-22T11:20:37;100705.00;;;30.90
22322;BMP180;11328;53.928;18.522;2023-06-22T11:23:07;100703.00;;;31.20
22322;BMP180;11328;53.928;18.522;2023-06-22T11:25:34;100696.00;;;31.30
22322;BMP180;11328;53.928;18.522;2023-06-22T11:28:03;100706.00;;;31.30
22322;BMP180;11328;53.928;18.522;2023-06-22T11:30:31;100707.00;;;31.40
22322;BMP180;11328;53.928;18.522;2023-06-22T11:32:59;100697.00;;;31.50
22322;BMP180;11328;53.928;18.522;2023-06-22T11:35:27;100692.00;;;31.30
22322;BMP180;11328;53.928;18.522;2023-06-22T11:37:54;100687.00;;;31.10
22322;BMP180;11328;53.928;18.522;2023-06-22T11:40:23;100694.00;;;31.10
22322;BMP180;11328;53.928;18.522;2023-06-22T11:42:50;100683.00;;;31.00
22322;BMP180;11328;53.928;18.522;2023-06-22T11:45:17;100693.00;;;31.50
22322;BMP180;11328;53.928;18.522;2023-06-22T11:47:46;100691.00;;;31.50
22322;BMP180;11328;53.928;18.522;2023-06-22T11:50:13;100689.00;;;30.90
22322;BMP180;11328;53.928;18.522;2023-06-22T11:52:41;100692.00;;;30.60
22322;BMP180;11328;53.928;18.522;2023-06-22T11:55:08;100675.00;;;30.70
22322;BMP180;11328;53.928;18.522;2023-06-22T11:57:54;100692.00;;;30.80
22322;BMP180;11328;53.928;18.522;2023-06-22T12:00:23;100687.00;;;30.70
22322;BMP180;11328;53.928;18.522;2023-06-22T12:02:56;100698.00;;;31.30
22322;BMP180;11328;53.928;18.522;2023-06-22T12:05:26;100686.00;;;31.50
22322;BMP180;11328;53.928;18.522;2023-06-22T12:07:54;100687.00;;;31.80
22322;BMP180;11328;53.928;18.522;2023-06-22T12:10:23;100692.00;;;31.20
22322;BMP180;11328;53.928;18.522;2023-06-22T12:12:50;100686.00;;;30.90
22322;BMP180;11328;53.928;18.522;2023-06-22T12:15:17;100689.00;;;31.20
22322;BMP180;11328;53.928;18.522;2023-06-22T12:17:44;100686.00;;;31.50
22322;BMP180;11328;53.928;18.522;2023-06-22T12:20:11;100680.00;;;31.80
22322;BMP180;11328;53.928;18.522;2023-06-22T12:22:39;100676.00;;;31.60
22322;BMP180;11328;53.928;18.522;2023-06-22T12:25:09;100670.00;;;31.70
22322;BMP180;11328;53.928;18.522;2023-06-22T12:27:37;100677.00;;;31.80
22322;BMP180;11328;53.928;18.522;2023-06-22T12:30:05;100670.00;;;31.80
22322;BMP180;11328;53.928;18.522;2023-06-22T12:32:32;100677.00;;;31.50
22322;BMP180;11328;53.928;18.522;2023-06-22T12:34:59;100667.00;;;31.40
22322;BMP180;11328;53.928;18.522;2023-06-22T12:37:27;100681.00;;;31.40
22322;BMP180;11328;53.928;18.522;2023-06-22T12:39:55;100676.00;;;31.00
22322;BMP180;11328;53.928;18.522;2023-06-22T12:42:23;100676.00;;;31.10
22322;BMP180;11328;53.928;18.522;2023-06-22T12:44:49;100662.00;;;31.10
22322;BMP180;11328;53.928;18.522;2023-06-22T12:47:18;100664.00;;;31.00
22322;BMP180;11328;53.928;18.522;2023-06-22T12:49:46;100668.00;;;31.00
22322;BMP180;11328;53.928;18.522;2023-06-22T12:52:14;100657.00;;;30.90
22322;BMP180;11328;53.928;18.522;2023-06-22T12:54:41;100664.00;;;31.00
22322;BMP180;11328;53.928;18.522;2023-06-22T12:57:21;100675.00;;;31.30
22322;BMP180;11328;53.928;18.522;2023-06-22T12:59:48;100668.00;;;31.00
22322;BMP180;11328;53.928;18.522;2023-06-22T13:02:15;100642.00;;;30.80
22322;BMP180;11328;53.928;18.522;2023-06-22T13:04:43;100666.00;;;30.70
22322;BMP180;11328;53.928;18.522;2023-06-22T13:07:10;100654.00;;;30.90
22322;BMP180;11328;53.928;18.522;2023-06-22T13:09:40;100653.00;;;31.10
22322;BMP180;11328;53.928;18.522;2023-06-22T13:12:08;100648.00;;;31.10
22322;BMP180;11328;53.928;18.522;2023-06-22T13:14:35;100649.00;;;31.30
22322;BMP180;11328;53.928;18.522;2023-06-22T13:17:03;100640.00;;;31.50
22322;BMP180;11328;53.928;18.522;2023-06-22T13:19:30;100650.00;;;31.60
22322;BMP180;11328;53.928;18.522;2023-06-22T13:21:59;100639.00;;;31.60
22322;BMP180;11328;53.928;18.522;2023-06-22T13:24:27;100637.00;;;31.40
22322;BMP180;11328;53.928;18.522;2023-06-22T13:26:54;100631.00;;;31.30
22322;BMP180;11328;53.928;18.522;2023-06-22T13:29:21;100631.00;;;31.00
22322;BMP180;11328;53.928;18.522;2023-06-22T13:31:49;100629.00;;;31.20
22322;BMP180;11328;53.928;18.522;2023-06-22T13:34:16;100630.00;;;31.40
22322;BMP180;11328;53.928;18.522;2023-06-22T13:36:43;100628.00;;;31.20
22322;BMP180;11328;53.928;18.522;2023-06-22T13:39:10;100626.00;;;31.20
22322;BMP180;11328;53.928;18.522;2023-06-22T13:41:37;100626.00;;;31.50
22322;BMP180;11328;53.928;18.522;2023-06-22T13:44:04;100638.00;;;31.40
22322;BMP180;11328;53.928;18.522;2023-06-22T13:46:31;100612.00;;;31.60
22322;BMP180;11328;53.928;18.522;2023-06-22T13:48:58;100622.00;;;31.70
22322;BMP180;11328;53.928;18.522;2023-06-22T13:51:25;100613.00;;;31.60
22322;BMP180;11328;53.928;18.522;2023-06-22T13:53:53;100610.00;;;31.40
22322;BMP180;11328;53.928;18.522;2023-06-22T13:56:20;100620.00;;;31.50
22322;BMP180;11328;53.928;18.522;2023-06-22T13:58:47;100610.00;;;31.50